createdAt,value
2022-10-19T00:01:20.783Z,20.60
2022-10-19T00:03:52.117Z,21.40
2022-10-19T00:06:26.597Z,21.10
2022-10-19T00:08:57.659Z,20.50
2022-10-19T00:11:26.456Z,19.80
2022-10-19T00:13:56.587Z,19.70
2022-10-19T00:16:26.787Z,19.60
2022-10-19T00:18:58.748Z,19.60
2022-10-19T00:21:27.477Z,18.90
2022-10-19T00:23:55.579Z,18.30
2022-10-19T00:26:23.423Z,17.60
2022-10-19T00:28:54.986Z,17.70
2022-10-19T00:31:23.661Z,18.10
2022-10-19T00:33:52.335Z,18.20
2022-10-19T00:36:21.727Z,18.30
2022-10-19T00:38:49.842Z,18.00
2022-10-19T00:41:19.208Z,18.50
2022-10-19T00:43:51.653Z,17.80
2022-10-19T00:46:19.525Z,18.10
2022-10-19T00:51:20.837Z,18.50
2022-10-19T00:53:48.584Z,17.30
2022-10-19T00:56:17.611Z,19.00
2022-10-19T00:58:45.954Z,18.20
2022-10-19T01:01:17.661Z,18.50
2022-10-19T01:03:46.209Z,17.50
2022-10-19T01:06:16.497Z,17.00
2022-10-19T01:08:44.553Z,17.00
2022-10-19T01:11:49.843Z,17.50
2022-10-19T01:14:36.315Z,17.00
2022-10-19T01:17:22.373Z,17.00
2022-10-19T01:20:07.841Z,18.10
2022-10-19T01:22:57.649Z,17.30
2022-10-19T01:26:02.647Z,17.70
2022-10-19T01:29:07.748Z,18.30
2022-10-19T01:31:35.466Z,18.70
2022-10-19T01:34:25.617Z,18.80
2022-10-19T01:37:37.599Z,17.80
2022-10-19T01:40:12.899Z,17.50
2022-10-19T01:43:09.691Z,17.60
2022-10-19T01:46:04.022Z,16.20
2022-10-19T01:48:35.292Z,16.80
2022-10-19T01:51:13.171Z,16.30
2022-10-19T01:53:46.584Z,16.30
2022-10-19T01:56:18.588Z,16.10
2022-10-19T01:58:47.677Z,17.30
2022-10-19T02:01:19.250Z,16.70
2022-10-19T02:03:51.787Z,15.90
2022-10-19T02:06:20.669Z,15.90
2022-10-19T02:08:51.236Z,16.80
2022-10-19T02:11:21.871Z,15.90
2022-10-19T02:13:58.737Z,16.70
2022-10-19T02:16:31.373Z,16.00
2022-10-19T02:19:01.957Z,16.20
2022-10-19T02:21:31.613Z,15.70
2022-10-19T02:23:59.427Z,16.30
2022-10-19T02:26:27.499Z,15.80
2022-10-19T02:28:56.329Z,15.60
2022-10-19T02:31:25.374Z,16.30
2022-10-19T02:33:53.937Z,17.50
2022-10-19T02:36:22.139Z,17.40
2022-10-19T02:38:49.906Z,16.20
2022-10-19T02:41:27.041Z,17.20
2022-10-19T02:44:01.468Z,16.10
2022-10-19T02:46:37.650Z,17.30
2022-10-19T02:49:08.218Z,16.10
2022-10-19T02:51:38.350Z,15.00
2022-10-19T02:54:08.479Z,14.60
2022-10-19T02:56:36.315Z,14.00
2022-10-19T02:59:04.330Z,15.10
2022-10-19T03:01:32.203Z,14.20
2022-10-19T03:03:59.977Z,15.00
2022-10-19T03:06:27.851Z,13.80
2022-10-19T03:08:55.727Z,13.00
2022-10-19T03:11:23.631Z,14.90
2022-10-19T03:13:51.514Z,15.70
2022-10-19T03:16:19.225Z,16.20
2022-10-19T03:18:50.812Z,16.30
2022-10-19T03:21:19.025Z,30.90
2022-10-19T03:23:47.053Z,17.20
2022-10-19T03:26:16.677Z,15.40
2022-10-19T03:28:44.604Z,12.90
2022-10-19T03:31:12.595Z,13.40
2022-10-19T03:33:40.325Z,13.10
2022-10-19T03:36:16.914Z,14.10
2022-10-19T03:38:44.808Z,13.00
2022-10-19T03:41:13.056Z,13.00
2022-10-19T03:43:41.288Z,12.60
2022-10-19T03:46:09.424Z,12.20
2022-10-19T03:48:37.235Z,14.30
2022-10-19T03:51:08.998Z,14.90
2022-10-19T03:53:37.128Z,14.60
2022-10-19T03:56:07.916Z,15.20
2022-10-19T03:58:37.600Z,16.30
2022-10-19T04:01:11.565Z,17.20
2022-10-19T04:03:39.760Z,21.10
2022-10-19T04:06:11.278Z,19.80
2022-10-19T04:08:39.433Z,18.40
2022-10-19T04:11:13.360Z,17.50
2022-10-19T04:13:41.299Z,17.70
2022-10-19T04:16:13.343Z,18.00
2022-10-19T04:18:41.236Z,18.30
2022-10-19T04:21:30.651Z,19.50
2022-10-19T04:24:00.614Z,18.70
2022-10-19T04:26:28.730Z,20.00
2022-10-19T04:29:01.148Z,21.30
2022-10-19T04:31:29.292Z,17.60
2022-10-19T04:33:57.768Z,16.10
2022-10-19T04:36:26.044Z,14.90
2022-10-19T04:38:53.706Z,18.50
2022-10-19T04:41:23.886Z,22.40
2022-10-19T04:43:56.750Z,25.10
2022-10-19T04:46:26.039Z,25.90
2022-10-19T04:48:54.531Z,32.50
2022-10-19T04:51:23.302Z,36.60
2022-10-19T04:53:52.469Z,33.50
2022-10-19T04:56:23.399Z,33.90
2022-10-19T04:58:51.281Z,34.60
2022-10-19T05:01:21.366Z,32.90
2022-10-19T05:03:54.346Z,35.20
2022-10-19T05:06:22.141Z,34.30
2022-10-19T05:08:50.581Z,25.00
2022-10-19T05:11:19.267Z,20.60
2022-10-19T05:13:47.494Z,19.50
2022-10-19T05:16:18.041Z,17.60
2022-10-19T05:18:50.720Z,16.10
2022-10-19T05:21:20.653Z,16.70
2022-10-19T05:23:52.320Z,18.30
2022-10-19T05:26:22.569Z,20.10
2022-10-19T05:28:56.555Z,21.30
2022-10-19T05:31:30.466Z,20.10
2022-10-19T05:33:59.178Z,18.80
2022-10-19T05:36:34.840Z,17.10
2022-10-19T05:39:13.238Z,18.40
2022-10-19T05:41:46.709Z,15.50
2022-10-19T05:44:20.676Z,15.50
2022-10-19T05:46:49.670Z,13.50
2022-10-19T05:49:20.721Z,13.10
2022-10-19T05:54:17.131Z,10.70
2022-10-19T05:56:45.242Z,12.10
2022-10-19T05:59:18.781Z,11.50
2022-10-19T06:01:47.781Z,12.50
2022-10-19T06:06:45.862Z,13.00
2022-10-19T06:09:14.007Z,12.10
2022-10-19T06:11:42.879Z,13.00
2022-10-19T06:14:14.917Z,14.20
2022-10-19T06:16:45.980Z,12.60
2022-10-19T06:21:45.820Z,12.40
2022-10-19T06:24:13.831Z,12.20
2022-10-19T06:26:41.721Z,11.40
2022-10-19T06:29:10.296Z,13.10
2022-10-19T06:31:38.635Z,12.50
2022-10-19T06:34:06.923Z,12.20
2022-10-19T06:36:37.177Z,12.40
2022-10-19T06:39:04.909Z,11.70
2022-10-19T06:41:34.278Z,12.50
2022-10-19T06:44:14.434Z,10.90
2022-10-19T06:46:42.193Z,10.60
2022-10-19T06:49:13.079Z,11.70
2022-10-19T06:51:41.096Z,10.50
2022-10-19T06:54:08.847Z,10.50
2022-10-19T06:56:36.656Z,10.20
2022-10-19T06:59:04.836Z,10.80
2022-10-19T07:01:32.810Z,11.20
2022-10-19T07:04:00.795Z,11.40
2022-10-19T07:06:28.860Z,12.70
2022-10-19T07:08:56.646Z,13.90
2022-10-19T07:11:24.409Z,13.80
2022-10-19T07:13:53.054Z,13.40
2022-10-19T07:16:21.984Z,12.50
2022-10-19T07:18:54.071Z,12.70
2022-10-19T07:21:23.315Z,13.10
2022-10-19T07:23:51.365Z,14.00
2022-10-19T07:26:27.104Z,12.00
2022-10-19T07:28:58.072Z,12.70
2022-10-19T07:31:28.083Z,14.10
2022-10-19T07:34:01.350Z,15.10
2022-10-19T07:36:32.085Z,17.00
2022-10-19T07:39:01.547Z,22.10
2022-10-19T07:41:29.455Z,20.50
2022-10-19T07:43:58.034Z,15.10
2022-10-19T07:46:29.226Z,14.00
2022-10-19T07:48:57.058Z,14.70
2022-10-19T07:51:25.897Z,14.30
2022-10-19T07:53:53.879Z,15.10
2022-10-19T07:56:26.680Z,15.20
2022-10-19T07:58:56.920Z,14.90
2022-10-19T08:01:30.626Z,15.30
2022-10-19T08:06:47.661Z,15.30
2022-10-19T08:09:33.514Z,15.80
2022-10-19T08:12:05.431Z,16.90
2022-10-19T08:14:33.763Z,16.10
2022-10-19T08:17:02.043Z,16.80
2022-10-19T08:19:30.199Z,18.10
2022-10-19T08:21:57.992Z,17.00
2022-10-19T08:24:25.722Z,15.40
2022-10-19T08:26:53.510Z,14.50
2022-10-19T08:29:21.619Z,15.40
2022-10-19T08:31:49.831Z,13.90
2022-10-19T08:34:17.859Z,14.00
2022-10-19T08:36:46.105Z,13.60
2022-10-19T08:39:14.405Z,13.50
2022-10-19T08:41:57.531Z,13.20
2022-10-19T08:44:34.534Z,13.40
2022-10-19T08:47:23.260Z,13.80
2022-10-19T08:49:52.189Z,13.50
2022-10-19T08:52:24.394Z,14.10
2022-10-19T08:54:55.687Z,15.00
2022-10-19T08:57:44.688Z,15.50
2022-10-19T09:00:27.559Z,14.20
2022-10-19T09:03:15.607Z,12.70
2022-10-19T09:05:54.076Z,13.50
2022-10-19T09:08:22.206Z,14.00
2022-10-19T09:10:53.543Z,16.90
2022-10-19T09:13:41.415Z,14.30
2022-10-19T09:16:21.369Z,12.40
2022-10-19T09:18:49.608Z,12.60
2022-10-19T09:21:36.897Z,12.50
2022-10-19T09:24:38.077Z,12.80
2022-10-19T09:27:10.410Z,12.50
2022-10-19T09:29:43.441Z,13.30
2022-10-19T09:32:17.124Z,11.80
2022-10-19T09:34:50.982Z,12.40
2022-10-19T09:37:25.942Z,10.80
2022-10-19T09:39:56.223Z,11.40
2022-10-19T09:42:33.672Z,11.60
2022-10-19T09:45:14.789Z,12.30
2022-10-19T09:47:48.317Z,11.40
2022-10-19T09:50:24.324Z,11.20
2022-10-19T09:52:55.614Z,11.30
2022-10-19T09:55:28.356Z,10.50
2022-10-19T09:58:14.350Z,10.60
2022-10-19T10:00:47.880Z,10.60
2022-10-19T10:03:43.564Z,10.00
2022-10-19T10:06:16.970Z,12.00
2022-10-19T10:09:03.885Z,11.10
2022-10-19T10:11:38.154Z,10.50
2022-10-19T10:14:18.288Z,11.90
2022-10-19T10:16:46.624Z,12.00
2022-10-19T10:19:17.026Z,10.00
2022-10-19T10:21:49.755Z,11.70
2022-10-19T10:24:19.805Z,11.20
2022-10-19T10:26:53.707Z,11.30
2022-10-19T10:29:27.839Z,11.60
2022-10-19T10:32:06.102Z,12.00
2022-10-19T10:34:49.860Z,12.70
2022-10-19T10:37:41.761Z,12.00
2022-10-19T10:40:27.486Z,11.90
2022-10-19T10:43:01.707Z,11.90
2022-10-19T10:45:34.022Z,10.30
2022-10-19T10:48:33.337Z,10.90
2022-10-19T10:51:02.492Z,12.70
2022-10-19T10:53:30.282Z,11.90
2022-10-19T10:55:58.204Z,11.70
2022-10-19T10:58:50.215Z,11.70
2022-10-19T11:01:23.814Z,12.00
2022-10-19T11:04:06.071Z,12.50
2022-10-19T11:06:43.665Z,16.40
2022-10-19T11:09:28.441Z,13.30
2022-10-19T11:12:02.393Z,11.20
2022-10-19T11:14:55.608Z,10.30
2022-10-19T11:17:30.285Z,10.30
2022-10-19T11:19:58.505Z,10.30
2022-10-19T11:22:29.320Z,11.50
2022-10-19T11:27:42.658Z,10.50
2022-10-19T11:30:21.752Z,11.50
2022-10-19T11:33:05.139Z,10.70
2022-10-19T11:35:38.995Z,10.80
2022-10-19T11:38:21.374Z,9.60
2022-10-19T11:41:13.126Z,10.70
2022-10-19T11:44:05.377Z,10.60
2022-10-19T11:47:17.851Z,10.60
2022-10-19T11:50:06.897Z,10.10
2022-10-19T11:52:49.647Z,10.90
2022-10-19T11:55:35.375Z,10.80
2022-10-19T11:58:24.499Z,11.90
2022-10-19T12:01:35.644Z,10.80
2022-10-19T12:04:22.363Z,10.50
2022-10-19T12:07:05.433Z,11.20
2022-10-19T12:10:02.517Z,11.30
2022-10-19T12:12:38.004Z,10.40
2022-10-19T12:15:11.779Z,11.20
2022-10-19T12:17:43.962Z,12.20
2022-10-19T12:20:24.158Z,11.60
2022-10-19T12:22:52.365Z,12.90
2022-10-19T12:25:21.709Z,13.50
2022-10-19T12:27:51.031Z,12.90
2022-10-19T12:30:21.937Z,12.90
2022-10-19T12:33:03.724Z,13.90
2022-10-19T12:35:56.222Z,12.50
2022-10-19T12:38:33.153Z,11.80
2022-10-19T12:41:24.882Z,10.30
2022-10-19T12:44:33.608Z,7.60
2022-10-19T12:47:34.390Z,6.20
2022-10-19T12:52:53.954Z,8.60
2022-10-19T12:55:21.725Z,9.20
2022-10-19T12:57:58.928Z,9.70
2022-10-19T13:00:32.592Z,9.50
2022-10-19T13:03:25.127Z,10.00
2022-10-19T13:05:58.342Z,8.80
2022-10-19T13:08:31.090Z,7.40
2022-10-19T13:11:14.789Z,6.60
2022-10-19T13:14:05.851Z,7.10
2022-10-19T13:16:36.668Z,7.20
2022-10-19T13:21:49.574Z,8.10
2022-10-19T13:24:28.386Z,8.20
2022-10-19T13:27:01.996Z,8.40
2022-10-19T13:29:39.047Z,8.20
2022-10-19T13:32:37.882Z,8.60
2022-10-19T13:35:24.920Z,8.00
2022-10-19T13:38:21.135Z,8.60
2022-10-19T13:40:48.975Z,9.80
2022-10-19T13:43:24.067Z,9.10
2022-10-19T13:46:16.986Z,7.60
2022-10-19T13:48:58.607Z,8.50
2022-10-19T13:51:41.089Z,8.60
2022-10-19T13:54:17.847Z,9.10
2022-10-19T13:57:06.526Z,10.30
2022-10-19T13:59:55.766Z,8.20
2022-10-19T14:02:47.671Z,7.80
2022-10-19T14:05:45.524Z,7.50
2022-10-19T14:08:38.178Z,8.50
2022-10-19T14:11:14.658Z,7.90
2022-10-19T14:13:43.144Z,8.00
2022-10-19T14:16:20.637Z,6.70
2022-10-19T14:18:56.544Z,7.80
2022-10-19T14:21:32.768Z,7.40
2022-10-19T14:24:00.989Z,8.00
2022-10-19T14:26:31.165Z,8.50
2022-10-19T14:29:00.331Z,7.80
2022-10-19T14:31:35.331Z,7.30
2022-10-19T14:34:07.519Z,7.30
2022-10-19T14:36:39.305Z,8.40
2022-10-19T14:39:08.205Z,7.90
2022-10-19T14:41:37.273Z,7.80
2022-10-19T14:44:42.408Z,8.00
2022-10-19T14:47:27.817Z,8.90
2022-10-19T14:49:56.862Z,9.70
2022-10-19T14:52:35.258Z,8.70
2022-10-19T14:55:14.042Z,8.60
2022-10-19T14:57:47.553Z,9.30
2022-10-19T15:02:57.167Z,8.60
2022-10-19T15:05:33.298Z,8.00
2022-10-19T15:08:20.320Z,7.80
2022-10-19T15:10:49.273Z,8.20
2022-10-19T15:13:31.671Z,8.80
2022-10-19T15:15:59.757Z,8.80
2022-10-19T15:18:50.894Z,9.70
2022-10-19T15:21:20.639Z,10.80
2022-10-19T15:23:52.814Z,11.10
2022-10-19T15:26:26.775Z,12.60
2022-10-19T15:29:06.902Z,12.70
2022-10-19T15:31:34.863Z,14.10
2022-10-19T15:34:03.798Z,13.70
2022-10-19T15:36:32.902Z,15.30
2022-10-19T15:39:18.149Z,14.60
2022-10-19T15:41:53.273Z,15.20
2022-10-19T15:44:42.113Z,15.60
2022-10-19T15:47:15.891Z,15.50
2022-10-19T15:49:44.384Z,15.50
2022-10-19T15:52:20.967Z,15.90
2022-10-19T15:54:53.693Z,17.30
2022-10-19T15:57:26.266Z,18.70
2022-10-19T15:59:56.207Z,18.00
2022-10-19T16:02:27.219Z,18.60
2022-10-19T16:04:55.468Z,20.30
2022-10-19T16:07:32.620Z,20.90
2022-10-19T16:10:00.848Z,20.90
2022-10-19T16:12:29.046Z,21.20
2022-10-19T16:14:56.840Z,24.80
2022-10-19T16:17:24.817Z,25.30
2022-10-19T16:19:52.617Z,28.00
2022-10-19T16:22:20.519Z,27.10
2022-10-19T16:24:48.398Z,27.70
2022-10-19T16:27:17.012Z,29.50
2022-10-19T16:29:44.909Z,29.60
2022-10-19T16:32:12.615Z,27.90
2022-10-19T16:34:41.382Z,26.90
2022-10-19T16:37:09.207Z,24.70
2022-10-19T16:39:37.186Z,24.00
2022-10-19T16:42:05.141Z,20.90
2022-10-19T16:44:33.011Z,19.80
2022-10-19T16:47:00.927Z,20.10
2022-10-19T16:49:28.791Z,18.50
2022-10-19T16:51:57.735Z,17.00
2022-10-19T16:54:32.715Z,17.30
2022-10-19T16:57:00.586Z,16.90
2022-10-19T16:59:28.728Z,17.30
2022-10-19T17:01:56.691Z,15.60
2022-10-19T17:04:26.000Z,14.10
2022-10-19T17:06:53.927Z,14.20
2022-10-19T17:09:41.827Z,12.40
2022-10-19T17:12:09.791Z,11.80
2022-10-19T17:14:40.715Z,11.80
2022-10-19T17:17:10.432Z,12.40
2022-10-19T17:19:38.383Z,11.10
2022-10-19T17:22:06.343Z,11.50
2022-10-19T17:24:34.831Z,9.20
2022-10-19T17:27:03.362Z,10.00
2022-10-19T17:29:31.166Z,10.30
2022-10-19T17:31:59.292Z,9.80
2022-10-19T17:34:27.447Z,8.40
2022-10-19T17:36:55.385Z,9.30
2022-10-19T17:39:28.952Z,10.40
2022-10-19T17:42:02.047Z,10.50
2022-10-19T17:44:31.333Z,11.40
2022-10-19T17:47:00.498Z,10.30
2022-10-19T17:49:29.952Z,10.30
2022-10-19T17:51:58.332Z,9.80
2022-10-19T17:54:26.582Z,9.90
2022-10-19T17:56:54.465Z,10.40
2022-10-19T17:59:34.914Z,9.20
2022-10-19T18:02:04.646Z,8.10
2022-10-19T18:07:04.423Z,8.30
2022-10-19T18:09:32.476Z,7.50
2022-10-19T18:12:04.747Z,7.10
2022-10-19T18:14:35.371Z,7.70
2022-10-19T18:17:03.369Z,7.30
2022-10-19T18:19:31.724Z,7.20
2022-10-19T18:21:59.434Z,6.50
2022-10-19T18:24:27.439Z,6.20
2022-10-19T18:26:55.345Z,6.20
2022-10-19T18:29:25.854Z,7.20
2022-10-19T18:31:53.919Z,6.80
2022-10-19T18:34:26.239Z,6.00
2022-10-19T18:36:54.973Z,5.30
2022-10-19T18:39:23.293Z,4.70
2022-10-19T18:41:57.082Z,4.80
2022-10-19T18:44:27.867Z,5.20
2022-10-19T18:46:57.484Z,5.50
2022-10-19T18:49:25.918Z,5.40
2022-10-19T18:51:55.539Z,5.20
2022-10-19T18:54:26.350Z,5.70
2022-10-19T18:56:55.319Z,5.10
2022-10-19T18:59:23.452Z,4.70
2022-10-19T19:01:52.097Z,5.50
2022-10-19T19:04:20.184Z,4.80
2022-10-19T19:06:47.929Z,4.90
2022-10-19T19:09:17.420Z,4.60
2022-10-19T19:11:45.373Z,6.10
2022-10-19T19:14:16.095Z,5.90
2022-10-19T19:16:45.229Z,4.70
2022-10-19T19:19:14.924Z,5.10
2022-10-19T19:21:44.553Z,4.90
2022-10-19T19:24:20.238Z,5.90
2022-10-19T19:26:51.253Z,5.40
2022-10-19T19:29:20.687Z,5.40
2022-10-19T19:31:49.885Z,4.70
2022-10-19T19:34:18.247Z,5.10
2022-10-19T19:36:49.154Z,5.20
2022-10-19T19:39:20.253Z,5.60
2022-10-19T19:41:50.181Z,5.60
2022-10-19T19:44:18.863Z,5.90
2022-10-19T19:46:46.838Z,5.70
2022-10-19T19:49:15.820Z,5.20
2022-10-19T19:51:43.583Z,5.10
2022-10-19T19:54:11.814Z,4.30
2022-10-19T19:56:42.011Z,5.60
2022-10-19T19:59:12.431Z,5.30
2022-10-19T20:01:40.609Z,5.10
2022-10-19T20:04:09.300Z,4.90
2022-10-19T20:06:38.847Z,4.70
2022-10-19T20:09:09.020Z,4.60
2022-10-19T20:11:41.235Z,4.10
2022-10-19T20:14:11.692Z,4.30
2022-10-19T20:16:39.652Z,4.60
2022-10-19T20:19:13.384Z,5.10
2022-10-19T20:21:42.005Z,4.50
2022-10-19T20:24:10.080Z,4.50
2022-10-19T20:26:38.466Z,4.30
2022-10-19T20:29:06.655Z,4.60
2022-10-19T20:31:39.409Z,4.80
2022-10-19T20:34:10.847Z,4.60
2022-10-19T20:39:06.777Z,4.70
2022-10-19T20:41:34.778Z,4.30
2022-10-19T20:44:02.701Z,4.90
2022-10-19T20:46:30.960Z,3.70
2022-10-19T20:49:00.889Z,3.40
2022-10-19T20:51:36.517Z,3.20
2022-10-19T20:54:07.340Z,3.80
2022-10-19T20:59:19.449Z,3.10
2022-10-19T21:01:52.495Z,3.00
2022-10-19T21:04:20.585Z,3.30
2022-10-19T21:06:51.053Z,3.10
2022-10-19T21:09:23.500Z,3.60
2022-10-19T21:11:52.052Z,3.10
2022-10-19T21:14:28.406Z,3.00
2022-10-19T21:16:58.101Z,2.90
2022-10-19T21:19:27.903Z,3.00
2022-10-19T21:22:01.655Z,3.00
2022-10-19T21:24:34.748Z,2.70
2022-10-19T21:27:06.612Z,3.40
2022-10-19T21:29:34.842Z,3.30
2022-10-19T21:32:03.495Z,3.40
2022-10-19T21:34:32.039Z,2.70
2022-10-19T21:36:59.894Z,2.70
2022-10-19T21:39:28.172Z,2.90
2022-10-19T21:41:56.113Z,3.20
2022-10-19T21:44:23.959Z,2.60
2022-10-19T21:46:51.879Z,2.70
2022-10-19T21:49:19.632Z,3.00
2022-10-19T21:51:56.247Z,3.20
2022-10-19T21:54:25.443Z,2.70
2022-10-19T21:56:55.058Z,2.50
2022-10-19T21:59:22.820Z,2.10
2022-10-19T22:01:50.749Z,2.60
2022-10-19T22:04:18.849Z,2.70
2022-10-19T22:06:47.073Z,2.50
2022-10-19T22:09:17.874Z,2.80
2022-10-19T22:11:46.043Z,2.20
2022-10-19T22:14:15.660Z,2.80
2022-10-19T22:16:44.049Z,2.60
2022-10-19T22:19:12.673Z,2.50
2022-10-19T22:21:41.250Z,2.20
2022-10-19T22:24:12.899Z,2.80
2022-10-19T22:26:44.516Z,2.20
2022-10-19T22:29:12.694Z,2.60
2022-10-19T22:31:40.649Z,2.60
2022-10-19T22:34:11.574Z,2.60
2022-10-19T22:36:39.351Z,2.40
2022-10-19T22:39:08.293Z,2.50
2022-10-19T22:41:35.984Z,2.60
2022-10-19T22:44:03.850Z,2.50
2022-10-19T22:46:31.706Z,2.40
2022-10-19T22:48:59.489Z,2.70
2022-10-19T22:51:27.478Z,2.90
2022-10-19T22:53:55.329Z,2.60
2022-10-19T22:56:23.150Z,2.50
2022-10-19T22:58:50.866Z,2.40
2022-10-19T23:01:19.174Z,2.60
2022-10-19T23:03:47.138Z,2.50
2022-10-19T23:06:15.634Z,2.60
2022-10-19T23:08:44.537Z,2.40
2022-10-19T23:11:12.931Z,2.80
2022-10-19T23:13:41.406Z,2.50
2022-10-19T23:16:09.667Z,2.60
2022-10-19T23:18:39.248Z,2.70
2022-10-19T23:21:10.513Z,2.50
2022-10-19T23:23:39.232Z,2.80
2022-10-19T23:26:08.959Z,2.70
2022-10-19T23:28:39.287Z,2.50
2022-10-19T23:31:14.139Z,2.80
2022-10-19T23:33:42.902Z,2.70
2022-10-19T23:36:15.877Z,2.80
2022-10-19T23:38:45.072Z,2.60
2022-10-19T23:41:13.587Z,2.50
2022-10-19T23:43:41.879Z,2.50
2022-10-19T23:46:10.358Z,2.40
2022-10-19T23:48:38.331Z,2.50
2022-10-19T23:51:08.835Z,2.70
2022-10-19T23:53:40.939Z,2.50
2022-10-19T23:56:21.808Z,2.80
2022-10-19T23:58:49.893Z,2.60
